sensor_id;sensor_type;location;lat;lon;timestamp;P1;durP1;ratioP1;P2;durP2;ratioP2
77888;SDS011;67082;41.704;44.768;2023-05-29T00:00:40;8.07;;;3.10;;
77888;SDS011;67082;41.704;44.768;2023-05-29T00:03:24;9.35;;;2.88;;
77888;SDS011;67082;41.704;44.768;2023-05-29T00:05:53;11.35;;;2.80;;
77888;SDS011;67082;41.704;44.768;2023-05-29T00:08:21;11.05;;;3.33;;
77888;SDS011;67082;41.704;44.768;2023-05-29T00:13:45;8.40;;;2.70;;
77888;SDS011;67082;41.704;44.768;2023-05-29T00:16:14;14.57;;;3.35;;
77888;SDS011;67082;41.704;44.768;2023-05-29T00:18:43;9.20;;;3.00;;
77888;SDS011;67082;41.704;44.768;2023-05-29T00:21:14;11.05;;;2.88;;
77888;SDS011;67082;41.704;44.768;2023-05-29T00:23:42;9.70;;;3.20;;
77888;SDS011;67082;41.704;44.768;2023-05-29T00:26:12;11.23;;;3.22;;
77888;SDS011;67082;41.704;44.768;2023-05-29T00:28:41;10.48;;;3.17;;
77888;SDS011;67082;41.704;44.768;2023-05-29T00:31:10;9.52;;;3.22;;
77888;SDS011;67082;41.704;44.768;2023-05-29T00:33:40;12.32;;;2.90;;
77888;SDS011;67082;41.704;44.768;2023-05-29T00:36:08;8.43;;;3.05;;
77888;SDS011;67082;41.704;44.768;2023-05-29T00:38:37;9.55;;;2.95;;
77888;SDS011;67082;41.704;44.768;2023-05-29T00:41:06;9.57;;;3.38;;
77888;SDS011;67082;41.704;44.768;2023-05-29T00:43:34;12.63;;;3.60;;
77888;SDS011;67082;41.704;44.768;2023-05-29T00:46:02;8.70;;;3.00;;
77888;SDS011;67082;41.704;44.768;2023-05-29T00:48:30;12.65;;;3.50;;
77888;SDS011;67082;41.704;44.768;2023-05-29T00:50:58;12.52;;;3.50;;
77888;SDS011;67082;41.704;44.768;2023-05-29T00:53:27;8.10;;;3.47;;
77888;SDS011;67082;41.704;44.768;2023-05-29T00:55:56;10.13;;;3.35;;
77888;SDS011;67082;41.704;44.768;2023-05-29T00:58:24;10.50;;;3.60;;
77888;SDS011;67082;41.704;44.768;2023-05-29T01:00:53;13.50;;;3.63;;
77888;SDS011;67082;41.704;44.768;2023-05-29T01:03:22;13.88;;;3.80;;
77888;SDS011;67082;41.704;44.768;2023-05-29T01:05:51;11.07;;;3.72;;
77888;SDS011;67082;41.704;44.768;2023-05-29T01:08:19;13.80;;;3.72;;
77888;SDS011;67082;41.704;44.768;2023-05-29T01:10:50;12.05;;;4.05;;
77888;SDS011;67082;41.704;44.768;2023-05-29T01:13:23;8.98;;;3.42;;
77888;SDS011;67082;41.704;44.768;2023-05-29T01:15:59;11.55;;;4.00;;
77888;SDS011;67082;41.704;44.768;2023-05-29T01:18:39;9.30;;;3.92;;
77888;SDS011;67082;41.704;44.768;2023-05-29T01:21:26;10.27;;;3.35;;
77888;SDS011;67082;41.704;44.768;2023-05-29T01:27:14;15.07;;;3.65;;
77888;SDS011;67082;41.704;44.768;2023-05-29T01:29:44;12.60;;;3.70;;
77888;SDS011;67082;41.704;44.768;2023-05-29T01:32:16;9.23;;;3.70;;
77888;SDS011;67082;41.704;44.768;2023-05-29T01:34:45;12.55;;;3.70;;
77888;SDS011;67082;41.704;44.768;2023-05-29T01:37:13;11.80;;;3.88;;
77888;SDS011;67082;41.704;44.768;2023-05-29T01:39:41;12.45;;;3.53;;
77888;SDS011;67082;41.704;44.768;2023-05-29T01:42:10;10.40;;;3.80;;
77888;SDS011;67082;41.704;44.768;2023-05-29T01:44:39;8.82;;;3.70;;
77888;SDS011;67082;41.704;44.768;2023-05-29T01:47:08;10.48;;;3.63;;
77888;SDS011;67082;41.704;44.768;2023-05-29T01:49:37;13.88;;;3.75;;
77888;SDS011;67082;41.704;44.768;2023-05-29T01:52:08;9.77;;;3.35;;
77888;SDS011;67082;41.704;44.768;2023-05-29T01:54:37;12.60;;;3.80;;
77888;SDS011;67082;41.704;44.768;2023-05-29T01:57:06;10.38;;;3.35;;
77888;SDS011;67082;41.704;44.768;2023-05-29T01:59:35;10.85;;;3.65;;
77888;SDS011;67082;41.704;44.768;2023-05-29T02:02:08;10.68;;;3.42;;
77888;SDS011;67082;41.704;44.768;2023-05-29T02:04:37;12.10;;;3.88;;
77888;SDS011;67082;41.704;44.768;2023-05-29T02:07:05;7.63;;;3.30;;
77888;SDS011;67082;41.704;44.768;2023-05-29T02:09:34;11.18;;;3.70;;
77888;SDS011;67082;41.704;44.768;2023-05-29T02:12:04;11.95;;;3.35;;
77888;SDS011;67082;41.704;44.768;2023-05-29T02:14:33;10.07;;;3.45;;
77888;SDS011;67082;41.704;44.768;2023-05-29T02:17:01;13.20;;;3.40;;
77888;SDS011;67082;41.704;44.768;2023-05-29T02:19:31;12.48;;;3.90;;
77888;SDS011;67082;41.704;44.768;2023-05-29T02:22:01;11.95;;;3.47;;
77888;SDS011;67082;41.704;44.768;2023-05-29T02:24:29;9.55;;;3.17;;
77888;SDS011;67082;41.704;44.768;2023-05-29T02:26:58;7.25;;;3.17;;
77888;SDS011;67082;41.704;44.768;2023-05-29T02:29:25;15.38;;;3.70;;
77888;SDS011;67082;41.704;44.768;2023-05-29T02:31:54;13.52;;;3.63;;
77888;SDS011;67082;41.704;44.768;2023-05-29T02:34:22;17.85;;;3.65;;
77888;SDS011;67082;41.704;44.768;2023-05-29T02:36:50;13.23;;;3.65;;
77888;SDS011;67082;41.704;44.768;2023-05-29T02:39:23;15.27;;;3.60;;
77888;SDS011;67082;41.704;44.768;2023-05-29T02:41:52;10.77;;;3.47;;
77888;SDS011;67082;41.704;44.768;2023-05-29T02:44:19;13.07;;;3.75;;
77888;SDS011;67082;41.704;44.768;2023-05-29T02:46:48;10.60;;;3.35;;
77888;SDS011;67082;41.704;44.768;2023-05-29T02:49:19;13.55;;;3.38;;
77888;SDS011;67082;41.704;44.768;2023-05-29T02:51:47;11.35;;;3.58;;
77888;SDS011;67082;41.704;44.768;2023-05-29T02:54:16;12.02;;;3.55;;
77888;SDS011;67082;41.704;44.768;2023-05-29T02:56:44;11.40;;;3.20;;
77888;SDS011;67082;41.704;44.768;2023-05-29T02:59:12;12.93;;;3.70;;
77888;SDS011;67082;41.704;44.768;2023-05-29T03:01:41;11.98;;;4.00;;
77888;SDS011;67082;41.704;44.768;2023-05-29T03:04:10;11.68;;;3.42;;
77888;SDS011;67082;41.704;44.768;2023-05-29T03:06:39;11.25;;;3.75;;
77888;SDS011;67082;41.704;44.768;2023-05-29T03:09:07;8.80;;;3.35;;
77888;SDS011;67082;41.704;44.768;2023-05-29T03:11:35;10.00;;;3.88;;
77888;SDS011;67082;41.704;44.768;2023-05-29T03:14:05;11.73;;;3.72;;
77888;SDS011;67082;41.704;44.768;2023-05-29T03:16:34;10.90;;;3.67;;
77888;SDS011;67082;41.704;44.768;2023-05-29T03:19:03;10.27;;;4.00;;
77888;SDS011;67082;41.704;44.768;2023-05-29T03:21:33;13.18;;;4.00;;
77888;SDS011;67082;41.704;44.768;2023-05-29T03:24:01;16.40;;;4.10;;
77888;SDS011;67082;41.704;44.768;2023-05-29T03:26:34;10.77;;;4.10;;
77888;SDS011;67082;41.704;44.768;2023-05-29T03:29:04;10.25;;;3.58;;
77888;SDS011;67082;41.704;44.768;2023-05-29T03:31:33;11.95;;;3.88;;
77888;SDS011;67082;41.704;44.768;2023-05-29T03:34:02;14.18;;;4.18;;
77888;SDS011;67082;41.704;44.768;2023-05-29T03:36:35;13.45;;;3.88;;
77888;SDS011;67082;41.704;44.768;2023-05-29T03:39:07;10.13;;;4.10;;
77888;SDS011;67082;41.704;44.768;2023-05-29T03:41:35;12.93;;;4.45;;
77888;SDS011;67082;41.704;44.768;2023-05-29T03:44:04;12.77;;;4.10;;
77888;SDS011;67082;41.704;44.768;2023-05-29T03:46:32;10.60;;;3.85;;
77888;SDS011;67082;41.704;44.768;2023-05-29T03:49:01;15.77;;;4.38;;
77888;SDS011;67082;41.704;44.768;2023-05-29T03:51:31;13.40;;;4.07;;
77888;SDS011;67082;41.704;44.768;2023-05-29T03:53:59;10.93;;;4.68;;
77888;SDS011;67082;41.704;44.768;2023-05-29T03:56:27;15.90;;;4.88;;
77888;SDS011;67082;41.704;44.768;2023-05-29T03:58:55;12.35;;;4.18;;
77888;SDS011;67082;41.704;44.768;2023-05-29T04:01:24;15.57;;;4.93;;
77888;SDS011;67082;41.704;44.768;2023-05-29T04:03:53;16.88;;;4.22;;
77888;SDS011;67082;41.704;44.768;2023-05-29T04:06:23;11.85;;;3.97;;
77888;SDS011;67082;41.704;44.768;2023-05-29T04:08:51;13.00;;;4.60;;
77888;SDS011;67082;41.704;44.768;2023-05-29T04:11:19;15.98;;;5.05;;
77888;SDS011;67082;41.704;44.768;2023-05-29T04:13:48;14.00;;;4.07;;
77888;SDS011;67082;41.704;44.768;2023-05-29T04:16:16;15.40;;;4.63;;
77888;SDS011;67082;41.704;44.768;2023-05-29T04:18:45;13.57;;;4.55;;
77888;SDS011;67082;41.704;44.768;2023-05-29T04:21:13;15.10;;;4.40;;
77888;SDS011;67082;41.704;44.768;2023-05-29T04:23:41;16.00;;;4.07;;
77888;SDS011;67082;41.704;44.768;2023-05-29T04:26:10;14.10;;;4.78;;
77888;SDS011;67082;41.704;44.768;2023-05-29T04:28:38;13.38;;;4.68;;
77888;SDS011;67082;41.704;44.768;2023-05-29T04:31:07;15.18;;;4.38;;
77888;SDS011;67082;41.704;44.768;2023-05-29T04:33:36;18.20;;;4.55;;
77888;SDS011;67082;41.704;44.768;2023-05-29T04:36:05;12.43;;;4.25;;
77888;SDS011;67082;41.704;44.768;2023-05-29T04:38:38;13.68;;;4.07;;
77888;SDS011;67082;41.704;44.768;2023-05-29T04:41:07;14.10;;;4.43;;
77888;SDS011;67082;41.704;44.768;2023-05-29T04:43:36;14.27;;;3.60;;
77888;SDS011;67082;41.704;44.768;2023-05-29T04:58:37;12.63;;;3.60;;
77888;SDS011;67082;41.704;44.768;2023-05-29T05:01:06;13.88;;;4.15;;
77888;SDS011;67082;41.704;44.768;2023-05-29T05:03:37;14.88;;;4.68;;
77888;SDS011;67082;41.704;44.768;2023-05-29T05:06:09;16.55;;;4.85;;
77888;SDS011;67082;41.704;44.768;2023-05-29T05:08:37;13.45;;;4.78;;
77888;SDS011;67082;41.704;44.768;2023-05-29T05:11:05;13.10;;;4.72;;
77888;SDS011;67082;41.704;44.768;2023-05-29T05:13:34;16.42;;;4.63;;
77888;SDS011;67082;41.704;44.768;2023-05-29T05:16:02;20.13;;;5.63;;
77888;SDS011;67082;41.704;44.768;2023-05-29T05:18:31;15.52;;;4.28;;
77888;SDS011;67082;41.704;44.768;2023-05-29T05:21:05;15.27;;;4.97;;
77888;SDS011;67082;41.704;44.768;2023-05-29T05:23:35;12.75;;;4.47;;
77888;SDS011;67082;41.704;44.768;2023-05-29T05:26:24;14.40;;;4.63;;
77888;SDS011;67082;41.704;44.768;2023-05-29T05:28:55;18.95;;;5.65;;
77888;SDS011;67082;41.704;44.768;2023-05-29T05:31:26;22.25;;;5.90;;
77888;SDS011;67082;41.704;44.768;2023-05-29T05:33:54;19.42;;;5.50;;
77888;SDS011;67082;41.704;44.768;2023-05-29T05:36:23;23.00;;;5.72;;
77888;SDS011;67082;41.704;44.768;2023-05-29T05:39:01;19.73;;;6.57;;
77888;SDS011;67082;41.704;44.768;2023-05-29T05:41:31;18.45;;;6.10;;
77888;SDS011;67082;41.704;44.768;2023-05-29T05:43:59;20.23;;;6.43;;
77888;SDS011;67082;41.704;44.768;2023-05-29T05:47:00;21.58;;;6.60;;
77888;SDS011;67082;41.704;44.768;2023-05-29T05:49:28;15.77;;;5.60;;
77888;SDS011;67082;41.704;44.768;2023-05-29T05:51:57;22.48;;;6.30;;
77888;SDS011;67082;41.704;44.768;2023-05-29T05:54:40;25.60;;;6.20;;
77888;SDS011;67082;41.704;44.768;2023-05-29T05:57:09;18.75;;;5.93;;
77888;SDS011;67082;41.704;44.768;2023-05-29T05:59:37;17.55;;;6.38;;
77888;SDS011;67082;41.704;44.768;2023-05-29T06:02:08;18.35;;;6.18;;
77888;SDS011;67082;41.704;44.768;2023-05-29T06:04:36;18.50;;;6.05;;
77888;SDS011;67082;41.704;44.768;2023-05-29T06:07:05;28.45;;;6.40;;
77888;SDS011;67082;41.704;44.768;2023-05-29T06:09:34;29.98;;;5.93;;
77888;SDS011;67082;41.704;44.768;2023-05-29T06:12:03;26.60;;;6.50;;
77888;SDS011;67082;41.704;44.768;2023-05-29T06:14:31;23.58;;;5.72;;
77888;SDS011;67082;41.704;44.768;2023-05-29T06:17:00;21.48;;;5.80;;
77888;SDS011;67082;41.704;44.768;2023-05-29T06:19:30;21.05;;;5.68;;
77888;SDS011;67082;41.704;44.768;2023-05-29T06:22:01;22.58;;;5.85;;
77888;SDS011;67082;41.704;44.768;2023-05-29T06:24:32;25.88;;;6.00;;
77888;SDS011;67082;41.704;44.768;2023-05-29T06:27:00;16.17;;;5.00;;
77888;SDS011;67082;41.704;44.768;2023-05-29T06:29:28;19.00;;;5.80;;
77888;SDS011;67082;41.704;44.768;2023-05-29T06:31:56;24.05;;;5.78;;
77888;SDS011;67082;41.704;44.768;2023-05-29T06:34:25;18.13;;;5.25;;
77888;SDS011;67082;41.704;44.768;2023-05-29T06:36:53;19.02;;;5.38;;
77888;SDS011;67082;41.704;44.768;2023-05-29T06:39:22;21.73;;;5.57;;
77888;SDS011;67082;41.704;44.768;2023-05-29T06:41:49;20.10;;;5.95;;
77888;SDS011;67082;41.704;44.768;2023-05-29T06:44:18;25.13;;;6.38;;
77888;SDS011;67082;41.704;44.768;2023-05-29T06:46:47;21.48;;;5.47;;
77888;SDS011;67082;41.704;44.768;2023-05-29T06:49:16;25.63;;;6.03;;
77888;SDS011;67082;41.704;44.768;2023-05-29T06:51:44;23.63;;;5.78;;
77888;SDS011;67082;41.704;44.768;2023-05-29T06:54:23;23.88;;;5.55;;
77888;SDS011;67082;41.704;44.768;2023-05-29T06:56:51;22.27;;;5.82;;
77888;SDS011;67082;41.704;44.768;2023-05-29T06:59:37;25.00;;;5.30;;
77888;SDS011;67082;41.704;44.768;2023-05-29T07:02:07;23.15;;;5.55;;
77888;SDS011;67082;41.704;44.768;2023-05-29T07:04:37;19.95;;;5.72;;
77888;SDS011;67082;41.704;44.768;2023-05-29T07:07:04;21.98;;;5.70;;
77888;SDS011;67082;41.704;44.768;2023-05-29T07:09:33;20.45;;;5.57;;
77888;SDS011;67082;41.704;44.768;2023-05-29T07:12:02;23.45;;;5.43;;
77888;SDS011;67082;41.704;44.768;2023-05-29T07:14:30;24.98;;;5.68;;
77888;SDS011;67082;41.704;44.768;2023-05-29T07:16:58;22.20;;;5.47;;
77888;SDS011;67082;41.704;44.768;2023-05-29T07:19:27;25.13;;;6.38;;
77888;SDS011;67082;41.704;44.768;2023-05-29T07:21:56;24.25;;;5.57;;
77888;SDS011;67082;41.704;44.768;2023-05-29T07:24:24;16.90;;;5.35;;
77888;SDS011;67082;41.704;44.768;2023-05-29T07:26:53;24.58;;;5.80;;
77888;SDS011;67082;41.704;44.768;2023-05-29T07:29:23;24.27;;;5.47;;
77888;SDS011;67082;41.704;44.768;2023-05-29T07:31:52;19.10;;;5.50;;
77888;SDS011;67082;41.704;44.768;2023-05-29T07:34:22;19.73;;;5.85;;
77888;SDS011;67082;41.704;44.768;2023-05-29T07:37:03;24.15;;;6.45;;
77888;SDS011;67082;41.704;44.768;2023-05-29T07:39:36;21.70;;;6.18;;
77888;SDS011;67082;41.704;44.768;2023-05-29T07:44:49;20.73;;;5.90;;
77888;SDS011;67082;41.704;44.768;2023-05-29T07:47:17;20.30;;;5.72;;
77888;SDS011;67082;41.704;44.768;2023-05-29T07:49:47;19.92;;;5.80;;
77888;SDS011;67082;41.704;44.768;2023-05-29T07:52:17;23.85;;;5.30;;
77888;SDS011;67082;41.704;44.768;2023-05-29T07:54:46;21.20;;;5.45;;
77888;SDS011;67082;41.704;44.768;2023-05-29T07:57:14;18.80;;;5.57;;
77888;SDS011;67082;41.704;44.768;2023-05-29T07:59:44;20.20;;;5.22;;
77888;SDS011;67082;41.704;44.768;2023-05-29T08:02:13;29.58;;;5.32;;
77888;SDS011;67082;41.704;44.768;2023-05-29T08:05:20;20.15;;;5.20;;
77888;SDS011;67082;41.704;44.768;2023-05-29T08:07:49;21.33;;;5.18;;
77888;SDS011;67082;41.704;44.768;2023-05-29T08:10:18;28.33;;;5.13;;
77888;SDS011;67082;41.704;44.768;2023-05-29T08:12:46;20.55;;;4.80;;
77888;SDS011;67082;41.704;44.768;2023-05-29T08:15:15;23.95;;;4.80;;
77888;SDS011;67082;41.704;44.768;2023-05-29T08:17:44;16.65;;;5.63;;
77888;SDS011;67082;41.704;44.768;2023-05-29T08:20:12;20.60;;;4.93;;
77888;SDS011;67082;41.704;44.768;2023-05-29T08:22:40;24.08;;;5.00;;
77888;SDS011;67082;41.704;44.768;2023-05-29T08:25:09;24.58;;;5.45;;
77888;SDS011;67082;41.704;44.768;2023-05-29T08:27:37;18.30;;;5.40;;
77888;SDS011;67082;41.704;44.768;2023-05-29T08:30:05;26.73;;;5.38;;
77888;SDS011;67082;41.704;44.768;2023-05-29T08:32:34;19.08;;;5.47;;
77888;SDS011;67082;41.704;44.768;2023-05-29T08:35:03;19.33;;;5.13;;
77888;SDS011;67082;41.704;44.768;2023-05-29T08:37:32;22.80;;;5.32;;
77888;SDS011;67082;41.704;44.768;2023-05-29T08:40:00;21.73;;;5.70;;
77888;SDS011;67082;41.704;44.768;2023-05-29T08:42:29;16.60;;;4.90;;
77888;SDS011;67082;41.704;44.768;2023-05-29T08:45:02;23.63;;;5.53;;
77888;SDS011;67082;41.704;44.768;2023-05-29T08:47:34;21.10;;;5.30;;
77888;SDS011;67082;41.704;44.768;2023-05-29T08:50:07;23.25;;;6.15;;
77888;SDS011;67082;41.704;44.768;2023-05-29T08:52:35;21.80;;;6.07;;
77888;SDS011;67082;41.704;44.768;2023-05-29T08:55:04;25.55;;;5.85;;
77888;SDS011;67082;41.704;44.768;2023-05-29T11:23:24;21.48;;;5.63;;
77888;SDS011;67082;41.704;44.768;2023-05-29T11:25:56;18.95;;;5.93;;
77888;SDS011;67082;41.704;44.768;2023-05-29T11:28:27;20.38;;;6.13;;
77888;SDS011;67082;41.704;44.768;2023-05-29T11:30:55;23.15;;;6.10;;
77888;SDS011;67082;41.704;44.768;2023-05-29T11:33:28;21.20;;;5.57;;
77888;SDS011;67082;41.704;44.768;2023-05-29T11:36:00;20.52;;;5.43;;
77888;SDS011;67082;41.704;44.768;2023-05-29T11:38:29;27.15;;;6.13;;
77888;SDS011;67082;41.704;44.768;2023-05-29T11:41:00;27.70;;;5.72;;
77888;SDS011;67082;41.704;44.768;2023-05-29T11:43:29;20.98;;;5.07;;
77888;SDS011;67082;41.704;44.768;2023-05-29T11:46:00;22.60;;;5.95;;
77888;SDS011;67082;41.704;44.768;2023-05-29T11:48:29;22.75;;;5.40;;
77888;SDS011;67082;41.704;44.768;2023-05-29T11:50:57;20.23;;;5.60;;
77888;SDS011;67082;41.704;44.768;2023-05-29T11:53:25;18.88;;;5.22;;
77888;SDS011;67082;41.704;44.768;2023-05-29T11:56:05;20.58;;;5.13;;
77888;SDS011;67082;41.704;44.768;2023-05-29T11:58:35;20.02;;;5.05;;
77888;SDS011;67082;41.704;44.768;2023-05-29T12:01:04;18.67;;;4.93;;
77888;SDS011;67082;41.704;44.768;2023-05-29T12:03:40;19.83;;;5.53;;
77888;SDS011;67082;41.704;44.768;2023-05-29T12:06:09;21.90;;;5.03;;
77888;SDS011;67082;41.704;44.768;2023-05-29T12:08:40;20.63;;;5.80;;
77888;SDS011;67082;41.704;44.768;2023-05-29T12:11:08;18.45;;;4.80;;
77888;SDS011;67082;41.704;44.768;2023-05-29T12:13:37;25.70;;;5.03;;
77888;SDS011;67082;41.704;44.768;2023-05-29T12:16:05;24.63;;;5.63;;
77888;SDS011;67082;41.704;44.768;2023-05-29T12:18:34;13.50;;;4.85;;
77888;SDS011;67082;41.704;44.768;2023-05-29T12:21:04;22.90;;;5.50;;
77888;SDS011;67082;41.704;44.768;2023-05-29T12:23:32;22.50;;;5.13;;
77888;SDS011;67082;41.704;44.768;2023-05-29T12:26:01;22.73;;;5.20;;
77888;SDS011;67082;41.704;44.768;2023-05-29T12:28:29;26.00;;;5.90;;
77888;SDS011;67082;41.704;44.768;2023-05-29T12:30:58;18.05;;;4.85;;
77888;SDS011;67082;41.704;44.768;2023-05-29T12:33:28;11.95;;;4.28;;
77888;SDS011;67082;41.704;44.768;2023-05-29T12:36:01;15.52;;;4.88;;
77888;SDS011;67082;41.704;44.768;2023-05-29T12:38:47;20.92;;;4.90;;
77888;SDS011;67082;41.704;44.768;2023-05-29T12:41:23;23.65;;;5.22;;
77888;SDS011;67082;41.704;44.768;2023-05-29T12:43:56;19.20;;;4.95;;
77888;SDS011;67082;41.704;44.768;2023-05-29T12:46:25;13.93;;;4.32;;
77888;SDS011;67082;41.704;44.768;2023-05-29T12:48:54;17.77;;;4.85;;
77888;SDS011;67082;41.704;44.768;2023-05-29T12:51:26;23.50;;;5.32;;
77888;SDS011;67082;41.704;44.768;2023-05-29T12:53:55;17.83;;;4.90;;
77888;SDS011;67082;41.704;44.768;2023-05-29T13:23:19;16.63;;;4.97;;
77888;SDS011;67082;41.704;44.768;2023-05-29T13:25:47;18.27;;;4.53;;
77888;SDS011;67082;41.704;44.768;2023-05-29T13:28:17;13.48;;;4.25;;
77888;SDS011;67082;41.704;44.768;2023-05-29T13:30:46;19.58;;;5.32;;
77888;SDS011;67082;41.704;44.768;2023-05-29T13:33:14;24.75;;;5.13;;
77888;SDS011;67082;41.704;44.768;2023-05-29T13:35:42;20.42;;;4.70;;
77888;SDS011;67082;41.704;44.768;2023-05-29T13:38:11;20.70;;;5.47;;
77888;SDS011;67082;41.704;44.768;2023-05-29T13:40:39;23.95;;;5.43;;
77888;SDS011;67082;41.704;44.768;2023-05-29T13:43:07;16.70;;;5.35;;
77888;SDS011;67082;41.704;44.768;2023-05-29T13:45:35;21.05;;;5.65;;
77888;SDS011;67082;41.704;44.768;2023-05-29T13:48:04;16.80;;;5.00;;
77888;SDS011;67082;41.704;44.768;2023-05-29T13:50:32;21.73;;;5.03;;
77888;SDS011;67082;41.704;44.768;2023-05-29T13:53:00;19.90;;;4.93;;
77888;SDS011;67082;41.704;44.768;2023-05-29T13:55:28;20.50;;;5.35;;
77888;SDS011;67082;41.704;44.768;2023-05-29T13:57:56;26.33;;;5.22;;
77888;SDS011;67082;41.704;44.768;2023-05-29T14:00:25;21.50;;;5.35;;
77888;SDS011;67082;41.704;44.768;2023-05-29T14:02:53;25.55;;;5.68;;
77888;SDS011;67082;41.704;44.768;2023-05-29T14:05:21;19.20;;;5.30;;
77888;SDS011;67082;41.704;44.768;2023-05-29T14:07:50;20.20;;;5.30;;
77888;SDS011;67082;41.704;44.768;2023-05-29T14:10:18;27.83;;;5.15;;
77888;SDS011;67082;41.704;44.768;2023-05-29T14:12:46;18.83;;;5.18;;
77888;SDS011;67082;41.704;44.768;2023-05-29T14:15:14;24.63;;;5.88;;
77888;SDS011;67082;41.704;44.768;2023-05-29T14:17:43;21.45;;;4.70;;
77888;SDS011;67082;41.704;44.768;2023-05-29T14:20:12;21.30;;;4.82;;
77888;SDS011;67082;41.704;44.768;2023-05-29T14:22:41;21.90;;;5.00;;
77888;SDS011;67082;41.704;44.768;2023-05-29T14:25:09;20.67;;;5.40;;
77888;SDS011;67082;41.704;44.768;2023-05-29T14:27:40;20.00;;;5.03;;
77888;SDS011;67082;41.704;44.768;2023-05-29T14:30:08;17.05;;;5.15;;
77888;SDS011;67082;41.704;44.768;2023-05-29T14:32:37;15.57;;;4.90;;
77888;SDS011;67082;41.704;44.768;2023-05-29T14:35:05;27.60;;;5.03;;
77888;SDS011;67082;41.704;44.768;2023-05-29T14:37:34;21.83;;;4.88;;
77888;SDS011;67082;41.704;44.768;2023-05-29T14:40:02;23.88;;;4.93;;
77888;SDS011;67082;41.704;44.768;2023-05-29T14:42:31;20.80;;;4.82;;
77888;SDS011;67082;41.704;44.768;2023-05-29T14:45:00;20.77;;;5.43;;
77888;SDS011;67082;41.704;44.768;2023-05-29T14:47:30;20.38;;;4.80;;
77888;SDS011;67082;41.704;44.768;2023-05-29T14:49:59;25.48;;;5.10;;
77888;SDS011;67082;41.704;44.768;2023-05-29T14:52:27;17.42;;;4.40;;
77888;SDS011;67082;41.704;44.768;2023-05-29T14:54:55;17.90;;;5.03;;
77888;SDS011;67082;41.704;44.768;2023-05-29T14:57:24;19.98;;;4.60;;
77888;SDS011;67082;41.704;44.768;2023-05-29T14:59:52;23.67;;;5.72;;
77888;SDS011;67082;41.704;44.768;2023-05-29T15:02:20;21.90;;;4.82;;
77888;SDS011;67082;41.704;44.768;2023-05-29T15:04:48;20.42;;;4.63;;
77888;SDS011;67082;41.704;44.768;2023-05-29T15:07:16;17.90;;;4.75;;
77888;SDS011;67082;41.704;44.768;2023-05-29T15:09:44;18.23;;;5.03;;
77888;SDS011;67082;41.704;44.768;2023-05-29T15:12:13;20.00;;;5.15;;
77888;SDS011;67082;41.704;44.768;2023-05-29T15:14:41;16.92;;;5.03;;
77888;SDS011;67082;41.704;44.768;2023-05-29T15:17:09;24.00;;;5.70;;
77888;SDS011;67082;41.704;44.768;2023-05-29T15:19:38;22.95;;;5.07;;
77888;SDS011;67082;41.704;44.768;2023-05-29T15:22:06;18.75;;;4.97;;
77888;SDS011;67082;41.704;44.768;2023-05-29T15:24:35;14.98;;;4.30;;
77888;SDS011;67082;41.704;44.768;2023-05-29T15:27:04;22.38;;;4.97;;
77888;SDS011;67082;41.704;44.768;2023-05-29T15:29:33;22.33;;;5.15;;
77888;SDS011;67082;41.704;44.768;2023-05-29T15:32:03;12.20;;;4.68;;
77888;SDS011;67082;41.704;44.768;2023-05-29T15:34:31;16.25;;;4.43;;
77888;SDS011;67082;41.704;44.768;2023-05-29T15:36:59;17.20;;;4.90;;
77888;SDS011;67082;41.704;44.768;2023-05-29T15:39:27;18.13;;;4.60;;
77888;SDS011;67082;41.704;44.768;2023-05-29T15:41:56;20.05;;;5.13;;
77888;SDS011;67082;41.704;44.768;2023-05-29T15:44:24;20.92;;;5.07;;
77888;SDS011;67082;41.704;44.768;2023-05-29T15:46:52;23.70;;;6.15;;
77888;SDS011;67082;41.704;44.768;2023-05-29T15:49:20;22.90;;;5.43;;
77888;SDS011;67082;41.704;44.768;2023-05-29T15:51:48;23.17;;;5.20;;
77888;SDS011;67082;41.704;44.768;2023-05-29T15:54:16;25.02;;;5.82;;
77888;SDS011;67082;41.704;44.768;2023-05-29T15:56:44;28.67;;;5.60;;
77888;SDS011;67082;41.704;44.768;2023-05-29T15:59:12;22.77;;;5.20;;
77888;SDS011;67082;41.704;44.768;2023-05-29T16:01:41;25.10;;;6.90;;
77888;SDS011;67082;41.704;44.768;2023-05-29T16:04:09;18.30;;;5.45;;
77888;SDS011;67082;41.704;44.768;2023-05-29T16:06:38;21.10;;;5.70;;
77888;SDS011;67082;41.704;44.768;2023-05-29T16:09:06;23.58;;;5.60;;
77888;SDS011;67082;41.704;44.768;2023-05-29T16:11:34;18.33;;;4.60;;
77888;SDS011;67082;41.704;44.768;2023-05-29T16:14:02;24.50;;;5.88;;
77888;SDS011;67082;41.704;44.768;2023-05-29T16:16:31;18.63;;;5.35;;
77888;SDS011;67082;41.704;44.768;2023-05-29T16:19:00;15.93;;;5.35;;
77888;SDS011;67082;41.704;44.768;2023-05-29T16:21:29;28.77;;;6.18;;
77888;SDS011;67082;41.704;44.768;2023-05-29T16:23:59;21.10;;;5.38;;
77888;SDS011;67082;41.704;44.768;2023-05-29T16:26:28;19.27;;;6.05;;
77888;SDS011;67082;41.704;44.768;2023-05-29T16:29:06;22.40;;;5.67;;
77888;SDS011;67082;41.704;44.768;2023-05-29T16:31:35;25.83;;;6.47;;
77888;SDS011;67082;41.704;44.768;2023-05-29T16:34:04;23.30;;;5.45;;
77888;SDS011;67082;41.704;44.768;2023-05-29T16:36:32;30.17;;;5.95;;
77888;SDS011;67082;41.704;44.768;2023-05-29T16:39:00;19.27;;;6.00;;
77888;SDS011;67082;41.704;44.768;2023-05-29T16:41:29;21.08;;;5.90;;
77888;SDS011;67082;41.704;44.768;2023-05-29T16:43:57;21.73;;;5.88;;
77888;SDS011;67082;41.704;44.768;2023-05-29T16:46:25;22.55;;;6.15;;
77888;SDS011;67082;41.704;44.768;2023-05-29T16:48:53;31.90;;;6.40;;
77888;SDS011;67082;41.704;44.768;2023-05-29T16:51:22;28.35;;;6.80;;
77888;SDS011;67082;41.704;44.768;2023-05-29T16:53:50;29.75;;;7.60;;
77888;SDS011;67082;41.704;44.768;2023-05-29T16:56:18;24.75;;;8.23;;
77888;SDS011;67082;41.704;44.768;2023-05-29T17:02:31;25.38;;;6.82;;
77888;SDS011;67082;41.704;44.768;2023-05-29T17:04:59;32.90;;;8.30;;
77888;SDS011;67082;41.704;44.768;2023-05-29T17:07:28;21.67;;;7.07;;
77888;SDS011;67082;41.704;44.768;2023-05-29T17:09:56;22.05;;;6.43;;
77888;SDS011;67082;41.704;44.768;2023-05-29T17:12:25;28.83;;;6.57;;
77888;SDS011;67082;41.704;44.768;2023-05-29T17:14:54;21.75;;;6.45;;
77888;SDS011;67082;41.704;44.768;2023-05-29T17:17:24;25.05;;;6.88;;
77888;SDS011;67082;41.704;44.768;2023-05-29T17:19:53;27.25;;;6.72;;
77888;SDS011;67082;41.704;44.768;2023-05-29T17:22:22;20.85;;;6.25;;
77888;SDS011;67082;41.704;44.768;2023-05-29T17:24:50;22.77;;;5.70;;
77888;SDS011;67082;41.704;44.768;2023-05-29T17:27:18;24.83;;;5.90;;
77888;SDS011;67082;41.704;44.768;2023-05-29T17:29:46;19.52;;;5.63;;
77888;SDS011;67082;41.704;44.768;2023-05-29T17:32:15;21.25;;;5.15;;
77888;SDS011;67082;41.704;44.768;2023-05-29T17:34:43;20.20;;;5.53;;
77888;SDS011;67082;41.704;44.768;2023-05-29T17:37:11;26.48;;;6.25;;
77888;SDS011;67082;41.704;44.768;2023-05-29T17:39:39;18.77;;;5.45;;
77888;SDS011;67082;41.704;44.768;2023-05-29T17:42:07;21.30;;;5.32;;
77888;SDS011;67082;41.704;44.768;2023-05-29T17:44:37;21.92;;;6.03;;
77888;SDS011;67082;41.704;44.768;2023-05-29T17:47:05;22.95;;;5.78;;
77888;SDS011;67082;41.704;44.768;2023-05-29T17:49:33;20.60;;;5.88;;
77888;SDS011;67082;41.704;44.768;2023-05-29T17:52:02;22.10;;;5.65;;
77888;SDS011;67082;41.704;44.768;2023-05-29T17:54:30;21.50;;;5.20;;